createdAt,value
2023-04-15T00:00:59.761Z,7.35
2023-04-15T00:03:27.068Z,8.18
2023-04-15T00:05:54.135Z,10.85
2023-04-15T00:08:20.876Z,11.85
2023-04-15T00:10:47.873Z,12.40
2023-04-15T00:13:15.343Z,10.05
2023-04-15T00:15:43.156Z,14.48
2023-04-15T00:18:09.952Z,12.07
2023-04-15T00:20:37.211Z,11.02
2023-04-15T00:23:04.430Z,8.80
2023-04-15T00:25:31.504Z,11.20
2023-04-15T00:27:58.387Z,9.63
2023-04-15T00:30:26.555Z,12.73
2023-04-15T00:32:53.527Z,12.63
2023-04-15T00:35:20.679Z,11.55
2023-04-15T00:37:48.434Z,7.78
2023-04-15T00:40:18.780Z,8.40
2023-04-15T00:42:45.742Z,9.07
2023-04-15T00:45:13.006Z,11.57
2023-04-15T00:47:42.932Z,7.35
2023-04-15T00:50:10.626Z,11.32
2023-04-15T00:52:37.739Z,10.75
2023-04-15T00:55:05.401Z,7.72
2023-04-15T00:57:33.138Z,11.73
2023-04-15T01:00:01.706Z,11.70
2023-04-15T01:02:28.905Z,12.43
2023-04-15T01:04:56.789Z,12.20
2023-04-15T01:07:23.699Z,14.40
2023-04-15T01:09:52.198Z,9.38
2023-04-15T01:12:20.632Z,11.55
2023-04-15T01:14:47.341Z,14.80
2023-04-15T01:17:14.511Z,8.27
2023-04-15T01:19:42.332Z,11.82
2023-04-15T01:22:09.481Z,10.73
2023-04-15T01:24:37.669Z,9.68
2023-04-15T01:27:05.352Z,7.60
2023-04-15T01:29:38.511Z,15.98
2023-04-15T01:32:05.833Z,10.55
2023-04-15T01:34:35.611Z,10.85
2023-04-15T01:37:02.657Z,10.30
2023-04-15T01:39:29.447Z,8.25
2023-04-15T01:41:57.267Z,10.10
2023-04-15T01:44:24.040Z,8.55
2023-04-15T01:46:50.789Z,10.70
2023-04-15T01:49:17.796Z,12.23
2023-04-15T01:51:44.739Z,9.65
2023-04-15T01:54:11.521Z,11.02
2023-04-15T01:56:38.926Z,11.50
2023-04-15T01:59:06.242Z,8.30
2023-04-15T02:01:33.084Z,8.85
2023-04-15T02:04:00.001Z,10.25
2023-04-15T02:06:28.187Z,11.52
2023-04-15T02:08:54.917Z,10.60
2023-04-15T02:11:23.136Z,8.07
2023-04-15T02:13:50.120Z,12.25
2023-04-15T02:16:19.766Z,14.38
2023-04-15T02:18:47.450Z,9.30
2023-04-15T02:21:14.561Z,13.85
2023-04-15T02:23:41.454Z,15.85
2023-04-15T02:26:08.305Z,13.93
2023-04-15T02:28:34.980Z,10.25
2023-04-15T02:31:06.390Z,10.07
2023-04-15T02:33:33.217Z,10.40
2023-04-15T02:35:59.979Z,11.52
2023-04-15T02:38:26.745Z,11.18
2023-04-15T02:40:53.510Z,10.05
2023-04-15T02:43:20.255Z,9.45
2023-04-15T02:45:47.341Z,14.65
2023-04-15T02:48:14.257Z,10.75
2023-04-15T02:50:41.094Z,11.90
2023-04-15T02:53:07.845Z,13.75
2023-04-15T02:55:36.850Z,12.23
2023-04-15T02:58:03.568Z,14.55
2023-04-15T03:00:30.401Z,12.85
2023-04-15T03:03:07.588Z,11.45
2023-04-15T03:05:34.346Z,8.05
2023-04-15T03:08:01.466Z,9.85
2023-04-15T03:10:28.501Z,8.50
2023-04-15T03:12:55.241Z,10.23
2023-04-15T03:15:22.340Z,11.50
2023-04-15T03:17:49.727Z,10.02
2023-04-15T03:20:17.088Z,9.35
2023-04-15T03:22:44.889Z,10.80
2023-04-15T03:25:11.841Z,15.75
2023-04-15T03:27:39.273Z,11.02
2023-04-15T03:30:07.741Z,8.45
2023-04-15T03:32:34.735Z,11.10
2023-04-15T03:35:01.463Z,10.68
2023-04-15T03:37:28.272Z,15.15
2023-04-15T03:39:54.926Z,10.13
2023-04-15T03:42:21.579Z,10.95
2023-04-15T03:44:48.316Z,11.77
2023-04-15T03:47:15.069Z,10.13
2023-04-15T03:49:41.733Z,11.25
2023-04-15T03:52:08.462Z,11.82
2023-04-15T03:54:35.115Z,8.73
2023-04-15T03:57:01.757Z,10.57
2023-04-15T03:59:28.436Z,11.48
2023-04-15T04:01:55.111Z,16.25
2023-04-15T04:04:21.936Z,10.32
2023-04-15T04:06:48.762Z,14.15
2023-04-15T04:09:15.518Z,13.75
2023-04-15T04:11:42.152Z,10.05
2023-04-15T04:14:09.263Z,13.00
2023-04-15T04:16:36.353Z,11.02
2023-04-15T04:19:03.303Z,10.82
2023-04-15T04:21:30.820Z,9.77
2023-04-15T04:23:57.512Z,8.90
2023-04-15T04:26:24.287Z,14.38
2023-04-15T04:28:51.201Z,11.43
2023-04-15T04:31:18.746Z,10.52
2023-04-15T04:33:45.407Z,9.50
2023-04-15T04:36:12.117Z,10.20
2023-04-15T04:38:38.862Z,9.98
2023-04-15T04:41:05.896Z,18.10
2023-04-15T04:43:32.562Z,12.13
2023-04-15T04:45:59.359Z,9.68
2023-04-15T04:48:26.328Z,10.65
2023-04-15T04:50:53.384Z,13.10
2023-04-15T04:53:20.215Z,10.75
2023-04-15T04:55:46.972Z,11.18
2023-04-15T04:58:13.715Z,12.23
2023-04-15T05:00:41.153Z,11.13
2023-04-15T05:03:08.177Z,12.20
2023-04-15T05:05:36.931Z,11.38
2023-04-15T05:08:03.770Z,11.25
2023-04-15T05:10:30.820Z,12.45
2023-04-15T05:12:58.071Z,18.08
2023-04-15T05:15:25.820Z,23.58
2023-04-15T05:17:52.542Z,25.23
2023-04-15T05:20:19.233Z,26.08
2023-04-15T05:22:45.999Z,21.83
2023-04-15T05:25:12.751Z,22.90
2023-04-15T05:27:39.439Z,17.20
2023-04-15T05:30:07.240Z,15.77
2023-04-15T05:32:33.949Z,15.60
2023-04-15T05:35:00.738Z,16.30
2023-04-15T05:37:27.400Z,12.57
2023-04-15T05:39:55.367Z,10.98
2023-04-15T05:42:23.261Z,12.60
2023-04-15T05:44:49.952Z,11.38
2023-04-15T05:47:16.702Z,14.68
2023-04-15T05:49:43.497Z,13.38
2023-04-15T05:52:10.326Z,13.23
2023-04-15T05:54:37.251Z,10.23
2023-04-15T05:57:04.057Z,12.55
2023-04-15T05:59:30.953Z,12.40
2023-04-15T06:01:59.781Z,11.45
2023-04-15T06:04:26.645Z,10.98
2023-04-15T06:06:53.472Z,14.25
2023-04-15T06:09:20.198Z,13.35
2023-04-15T06:11:47.075Z,11.88
2023-04-15T06:14:14.800Z,13.45
2023-04-15T06:16:41.567Z,13.70
2023-04-15T06:19:08.255Z,12.02
2023-04-15T06:21:35.306Z,12.55
2023-04-15T06:24:02.169Z,12.05
2023-04-15T06:26:28.908Z,11.27
2023-04-15T06:28:55.773Z,11.40
2023-04-15T06:31:22.730Z,12.98
2023-04-15T06:33:49.683Z,10.88
2023-04-15T06:36:16.470Z,14.93
2023-04-15T06:38:43.118Z,11.05
2023-04-15T06:41:09.870Z,14.43
2023-04-15T06:43:36.593Z,14.18
2023-04-15T06:46:03.411Z,13.48
2023-04-15T06:48:30.146Z,15.40
2023-04-15T06:50:58.339Z,13.00
2023-04-15T06:53:28.003Z,8.00
2023-04-15T06:55:55.024Z,11.07
2023-04-15T06:58:22.003Z,9.52
2023-04-15T07:00:49.153Z,10.95
2023-04-15T07:03:15.983Z,13.45
2023-04-15T07:05:43.430Z,12.77
2023-04-15T07:08:11.143Z,9.30
2023-04-15T07:10:38.169Z,11.68
2023-04-15T07:13:05.745Z,10.75
2023-04-15T07:15:32.458Z,16.77
2023-04-15T07:17:59.176Z,9.65
2023-04-15T07:20:27.392Z,11.20
2023-04-15T07:22:54.135Z,10.43
2023-04-15T07:25:21.022Z,13.55
2023-04-15T07:27:47.796Z,9.77
2023-04-15T07:30:14.654Z,13.95
2023-04-15T07:32:42.584Z,11.63
2023-04-15T07:35:09.782Z,11.68
2023-04-15T07:37:36.554Z,10.27
2023-04-15T07:40:06.997Z,9.10
2023-04-15T07:45:01.190Z,9.25
2023-04-15T07:47:28.918Z,12.85
2023-04-15T07:49:55.657Z,9.77
2023-04-15T07:52:22.647Z,13.77
2023-04-15T07:54:49.342Z,9.32
2023-04-15T07:57:17.062Z,6.38
2023-04-15T07:59:45.063Z,8.38
2023-04-15T08:02:14.336Z,7.88
2023-04-15T08:04:47.099Z,7.03
2023-04-15T08:07:13.893Z,10.10
2023-04-15T08:09:40.632Z,7.47
2023-04-15T08:12:09.446Z,7.65
2023-04-15T08:14:36.114Z,8.10
2023-04-15T08:17:02.793Z,8.57
2023-04-15T08:19:29.954Z,7.70
2023-04-15T08:21:56.898Z,8.20
2023-04-15T08:24:26.267Z,8.40
2023-04-15T08:26:53.539Z,12.68
2023-04-15T08:29:20.228Z,7.75
2023-04-15T08:31:47.789Z,10.40
2023-04-15T08:34:15.674Z,8.73
2023-04-15T08:36:43.008Z,5.68
2023-04-15T08:39:09.810Z,7.20
2023-04-15T08:41:56.523Z,9.85
2023-04-15T08:44:24.399Z,5.93
2023-04-15T08:46:52.642Z,7.28
2023-04-15T08:49:21.372Z,7.18
2023-04-15T08:51:49.631Z,9.02
2023-04-15T08:54:17.052Z,7.55
2023-04-15T08:56:43.886Z,7.72
2023-04-15T08:59:11.288Z,6.70
2023-04-15T09:01:38.586Z,3.53
2023-04-15T09:04:08.161Z,3.55
2023-04-15T09:06:35.678Z,5.53
2023-04-15T09:09:02.610Z,3.83
2023-04-15T09:11:31.458Z,5.13
2023-04-15T09:13:58.318Z,4.10
2023-04-15T09:16:25.039Z,3.95
2023-04-15T09:18:52.706Z,4.85
2023-04-15T09:21:19.625Z,5.07
2023-04-15T09:24:00.878Z,4.10
2023-04-15T09:26:36.202Z,5.90
2023-04-15T09:29:13.852Z,8.00
2023-04-15T09:31:41.203Z,5.97
2023-04-15T09:34:08.019Z,10.80
2023-04-15T09:36:48.071Z,4.88
2023-04-15T09:39:16.102Z,5.40
2023-04-15T09:41:44.488Z,6.85
2023-04-15T09:44:27.391Z,8.05
2023-04-15T09:46:54.107Z,11.48
2023-04-15T09:49:20.988Z,6.03
2023-04-15T09:51:57.946Z,5.28
2023-04-15T09:54:38.353Z,5.32
2023-04-15T09:57:07.240Z,4.10
2023-04-15T09:59:34.396Z,4.60
2023-04-15T10:02:04.090Z,3.90
2023-04-15T10:04:32.967Z,4.25
2023-04-15T10:07:00.758Z,4.30
2023-04-15T10:09:28.412Z,3.92
2023-04-15T10:11:56.061Z,5.07
2023-04-15T10:14:25.753Z,5.25
2023-04-15T10:16:56.472Z,3.38
2023-04-15T10:19:27.088Z,4.18
2023-04-15T10:21:55.343Z,4.97
2023-04-15T10:24:24.102Z,4.22
2023-04-15T10:26:51.876Z,8.93
2023-04-15T10:29:20.226Z,3.97
2023-04-15T10:31:48.214Z,13.50
2023-04-15T10:34:16.235Z,4.50
2023-04-15T10:36:43.025Z,4.63
2023-04-15T10:39:34.718Z,6.90
2023-04-15T10:42:15.843Z,5.28
2023-04-15T10:44:49.841Z,5.45
2023-04-15T10:47:21.487Z,10.38
2023-04-15T10:49:58.136Z,5.07
2023-04-15T10:52:27.611Z,5.20
2023-04-15T10:55:18.913Z,7.20
2023-04-15T10:57:46.009Z,6.38
2023-04-15T11:00:16.485Z,7.85
2023-04-15T11:05:12.611Z,5.55
2023-04-15T11:07:52.498Z,4.75
2023-04-15T11:10:31.310Z,3.35
2023-04-15T11:13:14.585Z,3.83
2023-04-15T11:15:45.945Z,6.97
2023-04-15T11:18:13.632Z,5.72
2023-04-15T11:20:44.948Z,4.25
2023-04-15T11:23:15.243Z,2.78
2023-04-15T11:25:43.310Z,2.97
2023-04-15T11:28:11.960Z,4.78
2023-04-15T11:30:40.147Z,2.60
2023-04-15T11:33:09.205Z,2.95
2023-04-15T11:35:36.388Z,5.60
2023-04-15T11:38:13.801Z,2.80
2023-04-15T11:40:42.114Z,3.13
2023-04-15T11:43:16.662Z,3.03
2023-04-15T11:46:00.960Z,2.67
2023-04-15T11:48:34.094Z,3.15
2023-04-15T11:51:07.856Z,3.55
2023-04-15T11:53:51.166Z,4.88
2023-04-15T11:56:25.634Z,3.95
2023-04-15T11:58:54.618Z,4.65
2023-04-15T12:01:21.763Z,6.25
2023-04-15T12:03:49.586Z,2.40
2023-04-15T12:06:19.616Z,3.20
2023-04-15T12:08:55.797Z,2.85
2023-04-15T12:11:49.600Z,3.05
2023-04-15T12:14:25.273Z,5.18
2023-04-15T12:16:58.112Z,4.55
2023-04-15T12:19:27.576Z,3.25
2023-04-15T12:22:02.660Z,3.35
2023-04-15T12:24:32.636Z,4.32
2023-04-15T12:27:10.064Z,2.50
2023-04-15T12:29:38.676Z,3.72
2023-04-15T12:32:16.145Z,2.75
2023-04-15T12:34:50.369Z,3.13
2023-04-15T12:37:17.690Z,3.53
2023-04-15T12:39:45.956Z,6.88
2023-04-15T12:42:12.991Z,4.72
2023-04-15T12:44:40.097Z,5.82
2023-04-15T12:47:08.404Z,3.47
2023-04-15T12:49:35.210Z,1.80
2023-04-15T12:52:03.291Z,6.70
2023-04-15T12:54:30.964Z,2.20
2023-04-15T12:56:59.148Z,2.42
2023-04-15T12:59:29.887Z,1.98
2023-04-15T13:01:57.144Z,3.72
2023-04-15T13:04:24.171Z,4.18
2023-04-15T13:06:51.367Z,4.95
2023-04-15T13:09:18.060Z,2.72
2023-04-15T13:11:44.923Z,4.05
2023-04-15T13:14:12.992Z,2.22
2023-04-15T13:16:40.104Z,2.50
2023-04-15T13:19:07.343Z,1.83
2023-04-15T13:21:35.686Z,1.92
2023-04-15T13:24:03.552Z,2.92
2023-04-15T13:26:31.598Z,2.60
2023-04-15T13:28:58.365Z,5.15
2023-04-15T13:31:25.587Z,3.03
2023-04-15T13:33:54.717Z,2.90
2023-04-15T13:36:21.606Z,4.97
2023-04-15T13:38:50.962Z,5.40
2023-04-15T13:41:20.078Z,5.55
2023-04-15T13:43:47.207Z,7.47
2023-04-15T13:46:15.115Z,2.22
2023-04-15T13:48:42.185Z,5.70
2023-04-15T13:51:08.958Z,3.08
2023-04-15T13:53:38.034Z,3.15
2023-04-15T13:56:10.034Z,3.75
2023-04-15T13:58:37.725Z,2.75
2023-04-15T14:01:06.313Z,3.72
2023-04-15T14:03:35.242Z,2.53
2023-04-15T14:06:02.293Z,3.33
2023-04-15T14:08:30.403Z,3.05
2023-04-15T14:10:57.701Z,2.33
2023-04-15T14:13:24.610Z,3.50
2023-04-15T14:15:51.348Z,1.90
2023-04-15T14:18:18.060Z,2.08
2023-04-15T14:20:44.845Z,3.45
2023-04-15T14:23:11.539Z,5.00
2023-04-15T14:25:39.354Z,1.60
2023-04-15T14:28:06.235Z,2.60
2023-04-15T14:30:33.163Z,3.35
2023-04-15T14:33:00.159Z,3.35
2023-04-15T14:35:27.387Z,8.60
2023-04-15T14:37:55.638Z,3.22
2023-04-15T14:40:22.746Z,2.42
2023-04-15T14:42:49.517Z,3.80
2023-04-15T14:45:16.581Z,2.60
2023-04-15T14:47:43.601Z,4.35
2023-04-15T14:50:10.724Z,9.18
2023-04-15T14:52:40.370Z,3.13
2023-04-15T14:55:12.066Z,5.40
2023-04-15T14:57:39.931Z,7.53
2023-04-15T15:00:07.580Z,4.50
2023-04-15T15:02:39.773Z,5.07
2023-04-15T15:05:08.315Z,2.50
2023-04-15T15:07:36.851Z,3.08
2023-04-15T15:10:03.955Z,5.30
2023-04-15T15:12:30.968Z,10.05
2023-04-15T15:14:57.631Z,2.78
2023-04-15T15:17:24.430Z,6.28
2023-04-15T15:19:51.537Z,5.95
2023-04-15T15:22:20.869Z,6.18
2023-04-15T15:24:48.215Z,7.63
2023-04-15T15:27:15.368Z,4.55
2023-04-15T15:29:42.190Z,3.00
2023-04-15T15:32:08.847Z,9.27
2023-04-15T15:34:35.682Z,4.53
2023-04-15T15:37:02.386Z,4.85
2023-04-15T15:39:29.175Z,6.28
2023-04-15T15:41:55.835Z,8.73
2023-04-15T15:44:22.640Z,6.18
2023-04-15T15:46:51.486Z,6.93
2023-04-15T15:49:18.337Z,7.82
2023-04-15T15:51:46.692Z,9.00
2023-04-15T15:54:13.442Z,6.93
2023-04-15T15:56:40.370Z,5.35
2023-04-15T15:59:07.237Z,5.35
2023-04-15T16:01:34.247Z,9.63
2023-04-15T16:04:01.363Z,6.78
2023-04-15T16:06:28.321Z,4.45
2023-04-15T16:08:55.092Z,7.78
2023-04-15T16:11:21.875Z,4.75
2023-04-15T16:13:48.585Z,4.68
2023-04-15T16:16:15.534Z,3.75
2023-04-15T16:18:42.290Z,6.05
2023-04-15T16:21:09.117Z,7.20
2023-04-15T16:23:36.808Z,6.40
2023-04-15T16:26:03.784Z,5.85
2023-04-15T16:28:30.508Z,7.00
2023-04-15T16:30:58.512Z,3.20
2023-04-15T16:33:25.386Z,7.95
2023-04-15T16:35:52.345Z,5.03
2023-04-15T16:38:19.050Z,10.05
2023-04-15T16:40:46.353Z,7.03
2023-04-15T16:43:13.073Z,5.90
2023-04-15T16:45:39.840Z,4.78
2023-04-15T16:48:06.876Z,8.00
2023-04-15T16:50:33.617Z,7.32
2023-04-15T16:53:01.537Z,9.38
2023-04-15T16:55:28.275Z,3.25
2023-04-15T16:58:01.624Z,6.80
2023-04-15T17:00:29.875Z,6.82
2023-04-15T17:02:56.729Z,6.88
2023-04-15T17:05:23.506Z,5.97
2023-04-15T17:07:51.268Z,3.95
2023-04-15T17:10:19.031Z,7.80
2023-04-15T17:12:45.757Z,4.70
2023-04-15T17:15:12.416Z,4.28
2023-04-15T17:17:39.245Z,5.78
2023-04-15T17:20:06.823Z,8.85
2023-04-15T17:22:33.620Z,8.18
2023-04-15T17:25:00.440Z,5.93
2023-04-15T17:27:28.805Z,2.28
2023-04-15T17:29:56.149Z,5.90
2023-04-15T17:32:23.688Z,12.13
2023-04-15T17:34:51.437Z,11.73
2023-04-15T17:37:18.703Z,7.20
2023-04-15T17:39:45.685Z,7.25
2023-04-15T17:42:13.634Z,9.85
2023-04-15T17:44:40.754Z,15.07
2023-04-15T17:47:07.581Z,6.35
2023-04-15T17:49:34.513Z,11.10
2023-04-15T17:52:01.410Z,6.45
2023-04-15T17:54:28.270Z,6.15
2023-04-15T17:56:56.630Z,7.20
2023-04-15T17:59:23.694Z,6.55
2023-04-15T18:01:50.531Z,7.55
2023-04-15T18:04:17.418Z,10.38
2023-04-15T18:06:44.444Z,9.13
2023-04-15T18:09:11.465Z,5.63
2023-04-15T18:11:40.079Z,11.10
2023-04-15T18:14:07.328Z,4.45
2023-04-15T18:16:34.337Z,9.02
2023-04-15T18:19:01.801Z,9.88
2023-04-15T18:21:28.576Z,5.88
2023-04-15T18:23:55.309Z,7.35
2023-04-15T18:26:22.082Z,9.10
2023-04-15T18:28:48.730Z,7.57
2023-04-15T18:31:15.618Z,8.13
2023-04-15T18:33:42.446Z,5.95
2023-04-15T18:36:11.453Z,7.65
2023-04-15T18:38:38.158Z,7.35
2023-04-15T18:41:05.541Z,6.03
2023-04-15T18:43:32.494Z,6.72
2023-04-15T18:46:00.068Z,8.10
2023-04-15T18:48:27.071Z,5.63
2023-04-15T18:50:54.207Z,5.28
2023-04-15T18:53:21.481Z,4.28
2023-04-15T18:55:48.263Z,5.35
2023-04-15T18:58:15.074Z,4.93
2023-04-15T19:00:43.749Z,5.07
2023-04-15T19:03:11.460Z,10.10
2023-04-15T19:05:38.519Z,7.82
2023-04-15T19:08:05.538Z,11.18
2023-04-15T19:10:33.797Z,6.90
2023-04-15T19:13:00.456Z,6.20
2023-04-15T19:15:30.592Z,9.60
2023-04-15T19:17:57.384Z,2.28
2023-04-15T19:20:24.128Z,10.48
2023-04-15T19:22:51.128Z,7.32
2023-04-15T19:25:17.908Z,5.47
2023-04-15T19:27:44.688Z,7.35
2023-04-15T19:30:11.595Z,10.82
2023-04-15T19:32:38.376Z,3.90
2023-04-15T19:35:05.494Z,9.00
2023-04-15T19:37:32.230Z,8.88
2023-04-15T19:39:59.546Z,5.25
2023-04-15T19:42:26.288Z,7.80
2023-04-15T19:44:53.245Z,7.63
2023-04-15T19:47:21.185Z,3.58
2023-04-15T19:49:48.054Z,10.40
2023-04-15T19:52:14.888Z,4.80
2023-04-15T19:54:41.629Z,8.10
2023-04-15T19:57:08.462Z,7.20
2023-04-15T19:59:35.231Z,8.88
2023-04-15T20:02:02.192Z,9.30
2023-04-15T20:04:29.151Z,3.20
2023-04-15T20:06:56.142Z,4.63
2023-04-15T20:09:23.868Z,7.40
2023-04-15T20:12:45.969Z,6.18
2023-04-15T20:14:37.801Z,4.15
2023-04-15T20:17:04.558Z,7.82
2023-04-15T20:19:31.291Z,7.45
2023-04-15T20:21:58.031Z,8.07
2023-04-15T20:24:24.876Z,7.85
2023-04-15T20:26:51.554Z,9.73
2023-04-15T20:29:18.343Z,6.90
2023-04-15T20:31:45.158Z,6.53
2023-04-15T20:34:12.227Z,9.60
2023-04-15T20:36:39.052Z,4.82
2023-04-15T20:39:06.171Z,7.40
2023-04-15T20:41:32.973Z,8.95
2023-04-15T20:44:00.685Z,9.15
2023-04-15T20:46:27.839Z,10.00
2023-04-15T20:48:54.740Z,9.00
2023-04-15T20:51:21.537Z,9.30
2023-04-15T20:53:49.085Z,8.52
2023-04-15T20:56:16.044Z,10.15
2023-04-15T20:58:42.698Z,4.57
2023-04-15T21:01:09.408Z,7.50
2023-04-15T21:03:38.870Z,10.30
2023-04-15T21:06:06.160Z,8.27
2023-04-15T21:08:32.994Z,15.35
2023-04-15T21:10:59.666Z,13.07
2023-04-15T21:13:26.444Z,9.25
2023-04-15T21:15:56.137Z,6.22
2023-04-15T21:18:23.108Z,6.85
2023-04-15T21:21:00.516Z,5.45
2023-04-15T21:23:30.381Z,9.25
2023-04-15T21:25:58.953Z,7.18
2023-04-15T21:28:27.934Z,7.47
2023-04-15T21:30:54.635Z,8.30
2023-04-15T21:33:21.593Z,11.50
2023-04-15T21:35:48.338Z,9.15
2023-04-15T21:38:15.269Z,7.07
2023-04-15T21:40:42.025Z,4.95
2023-04-15T21:43:08.942Z,4.72
2023-04-15T21:45:36.537Z,8.80
2023-04-15T21:48:07.865Z,4.28
2023-04-15T21:50:36.945Z,7.43
2023-04-15T21:53:04.327Z,4.25
2023-04-15T21:55:31.045Z,6.22
2023-04-15T21:57:57.788Z,7.00
2023-04-15T22:00:24.631Z,8.88
2023-04-15T22:02:51.819Z,9.65
2023-04-15T22:05:18.750Z,6.10
2023-04-15T22:07:45.509Z,14.35
2023-04-15T22:10:12.277Z,7.78
2023-04-15T22:12:41.937Z,10.88
2023-04-15T22:15:09.135Z,5.73
2023-04-15T22:17:35.911Z,8.35
2023-04-15T22:20:03.093Z,9.43
2023-04-15T22:22:43.384Z,10.90
2023-04-15T22:25:11.750Z,6.47
2023-04-15T22:27:38.479Z,5.35
2023-04-15T22:30:05.999Z,10.38
2023-04-15T22:32:32.839Z,9.80
2023-04-15T22:34:59.670Z,11.73
2023-04-15T22:37:26.440Z,6.65
2023-04-15T22:39:53.204Z,9.77
2023-04-15T22:42:19.924Z,14.50
2023-04-15T22:44:46.682Z,9.27
2023-04-15T22:47:13.548Z,9.35
2023-04-15T22:49:41.168Z,8.07
2023-04-15T22:52:10.380Z,11.35
2023-04-15T22:54:39.022Z,8.50
2023-04-15T22:57:05.690Z,7.80
2023-04-15T22:59:34.904Z,9.50
2023-04-15T23:02:01.646Z,12.82
2023-04-15T23:04:28.602Z,12.40
2023-04-15T23:06:55.762Z,8.25
2023-04-15T23:09:22.635Z,10.18
2023-04-15T23:11:49.977Z,10.55
2023-04-15T23:14:16.776Z,8.80
2023-04-15T23:16:43.527Z,10.27
2023-04-15T23:19:10.357Z,10.43
2023-04-15T23:21:37.211Z,11.38
2023-04-15T23:24:04.100Z,8.57
2023-04-15T23:26:31.149Z,17.95
2023-04-15T23:28:57.820Z,8.23
2023-04-15T23:31:24.659Z,10.77
2023-04-15T23:33:51.399Z,12.20
2023-04-15T23:36:18.192Z,7.13
2023-04-15T23:38:44.950Z,10.05
2023-04-15T23:41:12.113Z,8.70
2023-04-15T23:43:39.926Z,15.40
2023-04-15T23:46:06.600Z,16.40
2023-04-15T23:48:33.300Z,6.05
2023-04-15T23:51:01.591Z,5.63
2023-04-15T23:53:29.746Z,12.07
2023-04-15T23:55:56.814Z,11.38
2023-04-15T23:58:23.956Z,12.70
